createdAt,value
2023-01-10T00:00:51.261Z,8.22
2023-01-10T00:01:31.165Z,8.24
2023-01-10T00:02:11.232Z,8.27
2023-01-10T00:02:52.225Z,8.29
2023-01-10T00:03:39.175Z,8.22
2023-01-10T00:04:33.373Z,8.28
2023-01-10T00:05:27.186Z,8.31
2023-01-10T00:06:21.168Z,8.20
2023-01-10T00:07:15.190Z,8.34
2023-01-10T00:08:10.186Z,8.19
2023-01-10T00:08:57.173Z,8.28
2023-01-10T00:09:31.221Z,8.28
2023-01-10T00:10:19.164Z,8.24
2023-01-10T00:10:54.252Z,8.19
2023-01-10T00:12:00.146Z,8.31
2023-01-10T00:12:52.986Z,8.25
2023-01-10T00:13:40.168Z,8.23
2023-01-10T00:14:21.174Z,8.19
2023-01-10T00:15:15.167Z,8.27
2023-01-10T00:16:10.237Z,8.20
2023-01-10T00:17:04.156Z,8.24
2023-01-10T00:17:58.155Z,8.23
2023-01-10T00:18:52.228Z,8.13
2023-01-10T00:19:39.209Z,8.22
2023-01-10T00:20:13.246Z,8.07
2023-01-10T00:21:00.173Z,8.14
2023-01-10T00:21:34.198Z,7.92
2023-01-10T00:22:24.153Z,8.15
2023-01-10T00:22:58.203Z,8.12
2023-01-10T00:23:45.141Z,8.11
2023-01-10T00:24:19.440Z,8.12
2023-01-10T00:24:59.169Z,8.02
2023-01-10T00:25:39.321Z,7.96
2023-01-10T00:26:20.163Z,8.06
2023-01-10T00:27:00.308Z,8.13
2023-01-10T00:27:42.186Z,8.12
2023-01-10T00:28:23.679Z,7.96
2023-01-10T00:29:04.148Z,8.13
2023-01-10T00:29:44.521Z,8.20
2023-01-10T00:30:24.155Z,8.21
2023-01-10T00:31:07.104Z,8.12
2023-01-10T00:31:47.155Z,8.14
2023-01-10T00:32:28.406Z,8.10
2023-01-10T00:33:09.187Z,8.07
2023-01-10T00:33:49.420Z,8.15
2023-01-10T00:34:30.163Z,8.13
2023-01-10T00:35:11.195Z,8.15
2023-01-10T00:35:51.163Z,8.18
2023-01-10T00:36:45.129Z,8.09
2023-01-10T00:37:39.157Z,8.17
2023-01-10T00:38:33.158Z,8.15
2023-01-10T00:39:32.164Z,8.09
2023-01-10T00:40:26.137Z,8.15
2023-01-10T00:41:33.189Z,8.18
2023-01-10T00:42:25.896Z,8.16
2023-01-10T00:43:32.165Z,8.24
2023-01-10T00:44:06.577Z,8.20
2023-01-10T00:44:53.145Z,8.22
2023-01-10T00:45:27.562Z,8.13
2023-01-10T00:46:15.206Z,8.21
2023-01-10T00:46:56.168Z,8.27
2023-01-10T00:47:50.150Z,8.32
2023-01-10T00:48:44.157Z,8.26
2023-01-10T00:49:38.146Z,8.22
2023-01-10T00:50:32.114Z,8.26
2023-01-10T00:51:26.143Z,8.36
2023-01-10T00:52:14.170Z,8.33
2023-01-10T00:52:55.193Z,8.35
2023-01-10T00:53:35.129Z,8.41
2023-01-10T00:54:20.288Z,8.33
2023-01-10T00:55:00.143Z,8.36
2023-01-10T00:55:41.190Z,8.31
2023-01-10T00:56:22.158Z,8.35
2023-01-10T00:57:03.219Z,8.43
2023-01-10T00:57:43.161Z,8.27
2023-01-10T00:58:23.247Z,8.39
2023-01-10T00:59:03.121Z,8.46
2023-01-10T00:59:43.187Z,8.50
2023-01-10T01:00:24.120Z,8.51
2023-01-10T01:01:05.235Z,8.58
2023-01-10T01:01:45.214Z,8.52
2023-01-10T01:02:25.321Z,8.42
2023-01-10T01:03:06.217Z,8.53
2023-01-10T01:03:46.170Z,8.64
2023-01-10T01:04:26.119Z,8.54
2023-01-10T01:05:07.319Z,8.65
2023-01-10T01:05:49.135Z,8.61
2023-01-10T01:06:29.277Z,8.64
2023-01-10T01:07:10.134Z,8.67
2023-01-10T01:07:50.200Z,8.69
2023-01-10T01:08:30.150Z,8.68
2023-01-10T01:09:11.185Z,8.54
2023-01-10T01:10:10.126Z,8.73
2023-01-10T01:10:51.860Z,8.77
2023-01-10T01:11:33.113Z,8.80
2023-01-10T01:12:14.167Z,8.84
2023-01-10T01:12:54.115Z,8.75
2023-01-10T01:13:43.148Z,8.80
2023-01-10T01:14:16.822Z,8.72
2023-01-10T01:15:05.161Z,8.77
2023-01-10T01:15:39.014Z,8.86
2023-01-10T01:16:26.082Z,8.84
2023-01-10T01:16:59.770Z,8.65
2023-01-10T01:17:47.139Z,8.77
2023-01-10T01:18:21.834Z,8.82
2023-01-10T01:19:02.150Z,8.84
2023-01-10T01:19:36.165Z,8.76
2023-01-10T01:20:10.675Z,8.60
2023-01-10T01:20:55.074Z,8.70
2023-01-10T01:21:29.211Z,8.70
2023-01-10T01:22:02.757Z,8.72
2023-01-10T01:22:44.107Z,8.63
2023-01-10T01:23:18.211Z,8.69
2023-01-10T01:23:51.857Z,8.73
2023-01-10T01:24:32.134Z,8.57
2023-01-10T01:25:06.164Z,8.72
2023-01-10T01:25:40.156Z,8.73
2023-01-10T01:26:20.096Z,8.56
2023-01-10T01:26:54.170Z,8.56
2023-01-10T01:27:27.840Z,8.69
2023-01-10T01:28:09.078Z,8.67
2023-01-10T01:28:43.155Z,8.73
2023-01-10T01:29:18.124Z,8.59
2023-01-10T01:29:59.095Z,8.55
2023-01-10T01:30:33.168Z,8.59
2023-01-10T01:31:09.833Z,8.66
2023-01-10T01:31:50.075Z,8.57
2023-01-10T01:32:24.163Z,8.59
2023-01-10T01:32:57.902Z,8.65
2023-01-10T01:33:38.094Z,8.49
2023-01-10T01:34:12.148Z,8.59
2023-01-10T01:34:45.784Z,8.59
2023-01-10T01:35:27.100Z,8.63
2023-01-10T01:36:01.159Z,8.63
2023-01-10T01:36:34.799Z,8.64
2023-01-10T01:37:15.082Z,8.52
2023-01-10T01:37:50.154Z,8.53
2023-01-10T01:38:23.789Z,8.54
2023-01-10T01:39:04.127Z,8.58
2023-01-10T01:39:38.163Z,8.36
2023-01-10T01:40:17.987Z,8.43
2023-01-10T01:40:58.078Z,8.43
2023-01-10T01:41:50.915Z,8.43
2023-01-10T01:42:33.898Z,8.41
2023-01-10T01:43:34.069Z,8.38
2023-01-10T01:44:17.511Z,8.36
2023-01-10T01:45:09.813Z,8.38
2023-01-10T01:45:54.083Z,8.19
2023-01-10T01:46:35.213Z,8.24
2023-01-10T01:47:22.777Z,8.23
2023-01-10T01:48:33.070Z,8.23
2023-01-10T01:49:16.959Z,8.18
2023-01-10T01:50:05.085Z,8.08
2023-01-10T01:50:43.405Z,7.98
2023-01-10T01:51:34.087Z,7.93
2023-01-10T01:52:28.066Z,7.89
2023-01-10T01:53:14.159Z,7.90
2023-01-10T01:54:10.065Z,7.83
2023-01-10T01:54:44.134Z,7.77
2023-01-10T01:55:33.129Z,7.72
2023-01-10T01:56:17.194Z,7.81
2023-01-10T01:57:14.089Z,7.79
2023-01-10T01:57:55.143Z,7.75
2023-01-10T01:58:49.105Z,7.63
2023-01-10T01:59:48.210Z,7.86
2023-01-10T02:00:28.049Z,7.82
2023-01-10T02:01:08.135Z,7.81
2023-01-10T02:01:50.117Z,7.83
2023-01-10T02:02:51.028Z,7.86
2023-01-10T02:03:32.188Z,7.75
2023-01-10T02:04:25.063Z,7.79
2023-01-10T02:05:11.205Z,7.76
2023-01-10T02:05:58.062Z,7.64
2023-01-10T02:06:32.115Z,7.77
2023-01-10T02:07:20.086Z,7.82
2023-01-10T02:08:05.062Z,7.83
2023-01-10T02:09:08.051Z,7.81
2023-01-10T02:10:17.083Z,7.73
2023-01-10T02:11:24.055Z,7.77
2023-01-10T02:12:18.073Z,7.83
2023-01-10T02:13:18.059Z,7.86
2023-01-10T02:14:13.029Z,7.81
2023-01-10T02:15:08.037Z,7.70
2023-01-10T02:16:02.084Z,7.75
2023-01-10T02:16:56.033Z,7.77
2023-01-10T02:17:51.037Z,7.84
2023-01-10T02:18:38.075Z,7.76
2023-01-10T02:19:31.189Z,7.59
2023-01-10T02:20:20.061Z,7.65
2023-01-10T02:21:35.200Z,7.58
2023-01-10T02:23:18.051Z,7.51
2023-01-10T02:24:33.069Z,7.60
2023-01-10T02:25:51.019Z,7.70
2023-01-10T02:27:20.025Z,7.64
2023-01-10T02:28:47.066Z,7.66
2023-01-10T02:30:32.060Z,7.66
2023-01-10T02:32:41.722Z,7.62
2023-01-10T02:34:05.013Z,7.59
2023-01-10T02:35:24.057Z,7.63
2023-01-10T02:36:20.063Z,7.55
2023-01-10T02:37:38.143Z,7.43
2023-01-10T02:38:46.031Z,7.49
2023-01-10T02:39:29.075Z,7.43
2023-01-10T02:40:31.010Z,7.44
2023-01-10T02:41:36.071Z,7.41
2023-01-10T02:43:01.031Z,7.50
2023-01-10T02:44:03.034Z,7.39
2023-01-10T02:45:12.029Z,7.44
2023-01-10T02:46:17.074Z,7.38
2023-01-10T02:46:58.080Z,7.54
2023-01-10T02:47:48.066Z,7.53
2023-01-10T02:48:29.045Z,7.54
2023-01-10T02:49:09.151Z,7.56
2023-01-10T02:49:55.021Z,7.48
2023-01-10T02:50:56.068Z,7.47
2023-01-10T02:51:40.031Z,7.58
2023-01-10T02:52:28.036Z,7.45
2023-01-10T02:53:10.704Z,7.41
2023-01-10T02:54:06.975Z,7.36
2023-01-10T02:54:41.040Z,7.30
2023-01-10T02:55:41.018Z,7.38
2023-01-10T02:56:55.129Z,7.44
2023-01-10T02:57:57.018Z,7.38
2023-01-10T02:59:01.081Z,7.32
2023-01-10T03:00:34.974Z,7.14
2023-01-10T03:01:39.204Z,7.08
2023-01-10T03:02:58.087Z,7.14
2023-01-10T03:04:29.088Z,7.19
2023-01-10T03:05:55.996Z,7.21
2023-01-10T03:07:03.146Z,7.14
2023-01-10T03:08:15.026Z,7.10
2023-01-10T03:09:06.085Z,7.23
2023-01-10T03:10:37.003Z,7.19
2023-01-10T03:11:15.074Z,7.19
2023-01-10T03:12:15.988Z,7.22
2023-01-10T03:13:01.029Z,7.17
2023-01-10T03:13:58.022Z,7.17
2023-01-10T03:14:41.053Z,7.05
2023-01-10T03:15:25.003Z,7.13
2023-01-10T03:16:06.119Z,7.05
2023-01-10T03:16:48.995Z,7.19
2023-01-10T03:17:29.607Z,7.13
2023-01-10T03:18:18.003Z,7.15
2023-01-10T03:19:28.008Z,7.23
2023-01-10T03:20:23.001Z,7.24
2023-01-10T03:21:19.001Z,7.10
2023-01-10T03:22:14.973Z,7.08
2023-01-10T03:23:09.981Z,7.07
2023-01-10T03:24:09.985Z,7.08
2023-01-10T03:24:56.015Z,7.00
2023-01-10T03:25:41.044Z,7.16
2023-01-10T03:26:22.954Z,7.08
2023-01-10T03:27:10.998Z,7.10
2023-01-10T03:27:56.027Z,7.05
2023-01-10T03:29:03.978Z,7.02
2023-01-10T03:30:13.974Z,7.06
2023-01-10T03:31:18.020Z,6.89
2023-01-10T03:32:17.967Z,6.91
2023-01-10T03:33:12.971Z,7.02
2023-01-10T03:34:06.979Z,7.00
2023-01-10T03:35:01.017Z,6.92
2023-01-10T03:36:28.970Z,7.00
2023-01-10T03:37:49.037Z,7.01
2023-01-10T03:38:47.979Z,7.06
2023-01-10T03:39:44.018Z,6.81
2023-01-10T03:41:06.157Z,7.09
2023-01-10T03:42:16.963Z,7.06
2023-01-10T03:43:24.715Z,7.05
2023-01-10T03:44:50.959Z,6.81
2023-01-10T03:45:33.397Z,6.94
2023-01-10T03:46:37.997Z,6.81
2023-01-10T03:47:36.034Z,6.93
2023-01-10T03:48:30.930Z,6.69
2023-01-10T03:49:25.991Z,6.79
2023-01-10T03:50:36.938Z,6.82
2023-01-10T03:51:31.927Z,6.74
2023-01-10T03:52:28.936Z,6.74
2023-01-10T03:53:08.943Z,6.82
2023-01-10T03:53:49.051Z,6.74
2023-01-10T03:54:28.983Z,6.66
2023-01-10T03:55:09.065Z,6.69
2023-01-10T03:55:50.954Z,6.65
2023-01-10T03:56:31.046Z,6.63
2023-01-10T03:57:12.919Z,6.65
2023-01-10T03:57:53.034Z,6.69
2023-01-10T03:58:35.945Z,6.58
2023-01-10T03:59:15.988Z,6.67
2023-01-10T04:00:03.943Z,6.72
2023-01-10T04:00:44.062Z,6.64
2023-01-10T04:01:25.033Z,6.72
2023-01-10T04:02:05.108Z,6.72
2023-01-10T04:02:45.925Z,6.63
2023-01-10T04:03:26.173Z,6.70
2023-01-10T04:04:06.978Z,6.71
2023-01-10T04:04:46.987Z,6.62
2023-01-10T04:05:26.910Z,6.68
2023-01-10T04:06:07.011Z,6.71
2023-01-10T04:06:47.942Z,6.58
2023-01-10T04:07:28.055Z,6.52
2023-01-10T04:08:08.952Z,6.58
2023-01-10T04:08:48.980Z,6.64
2023-01-10T04:09:29.963Z,6.70
2023-01-10T04:10:11.987Z,6.76
2023-01-10T04:10:55.929Z,6.72
2023-01-10T04:11:36.265Z,6.83
2023-01-10T04:12:16.909Z,6.77
2023-01-10T04:12:57.042Z,6.78
2023-01-10T04:13:36.916Z,6.84
2023-01-10T04:14:16.982Z,6.74
2023-01-10T04:14:56.969Z,6.75
2023-01-10T04:15:38.128Z,6.77
2023-01-10T04:16:18.974Z,6.76
2023-01-10T04:16:59.692Z,6.78
2023-01-10T04:17:39.915Z,6.71
2023-01-10T04:18:20.107Z,6.87
2023-01-10T04:18:59.908Z,6.82
2023-01-10T04:19:39.986Z,6.70
2023-01-10T04:20:20.998Z,6.71
2023-01-10T04:21:00.972Z,6.83
2023-01-10T04:21:40.908Z,6.86
2023-01-10T04:22:21.056Z,6.80
2023-01-10T04:23:00.941Z,6.87
2023-01-10T04:23:40.978Z,6.92
2023-01-10T04:24:21.902Z,6.92
2023-01-10T04:25:01.970Z,7.00
2023-01-10T04:25:41.959Z,7.06
2023-01-10T04:26:21.970Z,7.05
2023-01-10T04:27:01.906Z,7.10
2023-01-10T04:27:41.976Z,6.95
2023-01-10T04:28:28.929Z,7.01
2023-01-10T04:29:10.195Z,7.08
2023-01-10T04:29:49.888Z,7.18
2023-01-10T04:30:29.963Z,7.25
2023-01-10T04:31:09.923Z,7.21
2023-01-10T04:31:50.153Z,7.14
2023-01-10T04:32:30.945Z,7.17
2023-01-10T04:33:12.543Z,7.21
2023-01-10T04:33:52.907Z,7.18
2023-01-10T04:34:33.219Z,7.33
2023-01-10T04:35:13.946Z,7.24
2023-01-10T04:35:56.066Z,7.19
2023-01-10T04:36:36.898Z,7.29
2023-01-10T04:37:16.962Z,7.31
2023-01-10T04:37:56.894Z,7.30
2023-01-10T04:38:36.980Z,7.26
2023-01-10T04:39:16.910Z,7.17
2023-01-10T04:39:57.058Z,7.21
2023-01-10T04:40:37.892Z,7.18
2023-01-10T04:41:17.999Z,7.20
2023-01-10T04:41:57.899Z,7.23
2023-01-10T04:42:37.974Z,7.25
2023-01-10T04:43:18.894Z,7.23
2023-01-10T04:43:59.989Z,7.11
2023-01-10T04:44:40.882Z,7.18
2023-01-10T04:45:21.853Z,7.13
2023-01-10T04:46:01.920Z,7.09
2023-01-10T04:46:41.962Z,7.15
2023-01-10T04:47:21.964Z,7.23
2023-01-10T04:48:01.983Z,7.28
2023-01-10T04:48:43.877Z,7.15
2023-01-10T04:49:24.013Z,7.27
2023-01-10T04:50:03.866Z,7.26
2023-01-10T04:50:43.988Z,7.32
2023-01-10T04:51:23.879Z,7.27
2023-01-10T04:52:04.968Z,7.26
2023-01-10T04:52:47.971Z,7.36
2023-01-10T04:53:28.970Z,7.26
2023-01-10T04:54:08.881Z,7.24
2023-01-10T04:54:48.984Z,7.36
2023-01-10T04:55:28.884Z,7.39
2023-01-10T04:56:14.955Z,7.44
2023-01-10T04:56:56.915Z,7.32
2023-01-10T04:57:36.966Z,7.15
2023-01-10T04:58:16.900Z,7.10
2023-01-10T04:58:57.986Z,7.10
2023-01-10T04:59:37.902Z,7.19
2023-01-10T05:00:19.975Z,7.18
2023-01-10T05:01:00.898Z,7.23
2023-01-10T05:01:40.993Z,7.21
2023-01-10T05:02:20.931Z,7.23
2023-01-10T05:03:05.071Z,7.25
2023-01-10T05:03:45.887Z,7.22
2023-01-10T05:04:25.914Z,7.07
2023-01-10T05:05:06.901Z,7.07
2023-01-10T05:05:46.943Z,7.17
2023-01-10T05:06:28.883Z,7.29
2023-01-10T05:07:08.958Z,7.34
2023-01-10T05:07:49.886Z,7.18
2023-01-10T05:08:29.973Z,7.24
2023-01-10T05:09:10.865Z,7.25
2023-01-10T05:09:50.934Z,7.23
2023-01-10T05:10:30.870Z,7.09
2023-01-10T05:11:10.935Z,7.10
2023-01-10T05:11:50.892Z,7.26
2023-01-10T05:12:30.917Z,7.14
2023-01-10T05:13:11.864Z,7.29
2023-01-10T05:13:51.978Z,7.25
2023-01-10T05:14:31.886Z,7.34
2023-01-10T05:15:12.925Z,7.27
2023-01-10T05:15:52.861Z,7.18
2023-01-10T05:16:33.992Z,7.31
2023-01-10T05:17:20.842Z,7.20
2023-01-10T05:17:56.090Z,7.18
2023-01-10T05:18:42.869Z,7.25
2023-01-10T05:19:16.970Z,7.14
2023-01-10T05:19:56.904Z,6.98
2023-01-10T05:20:36.962Z,7.05
2023-01-10T05:21:18.865Z,7.02
2023-01-10T05:21:59.015Z,7.07
2023-01-10T05:22:39.844Z,6.95
2023-01-10T05:23:19.971Z,7.05
2023-01-10T05:23:59.864Z,7.04
2023-01-10T05:24:39.933Z,7.02
2023-01-10T05:25:19.875Z,6.91
2023-01-10T05:25:59.937Z,6.98
2023-01-10T05:26:39.839Z,7.01
2023-01-10T05:27:19.913Z,7.02
2023-01-10T05:27:59.849Z,6.98
2023-01-10T05:28:40.017Z,6.91
2023-01-10T05:29:20.853Z,6.91
2023-01-10T05:30:01.978Z,6.95
2023-01-10T05:30:41.834Z,6.98
2023-01-10T05:31:25.967Z,6.81
2023-01-10T05:32:05.862Z,6.75
2023-01-10T05:32:46.919Z,6.87
2023-01-10T05:33:26.862Z,6.87
2023-01-10T05:34:08.967Z,6.94
2023-01-10T05:34:49.842Z,6.91
2023-01-10T05:35:29.907Z,6.93
2023-01-10T05:36:11.868Z,6.85
2023-01-10T05:36:51.980Z,6.78
2023-01-10T05:37:32.864Z,6.92
2023-01-10T05:38:13.902Z,6.90
2023-01-10T05:38:54.857Z,6.81
2023-01-10T05:39:34.945Z,6.79
2023-01-10T05:40:16.833Z,6.81
2023-01-10T05:41:02.962Z,6.72
2023-01-10T05:41:42.850Z,6.72
2023-01-10T05:42:22.893Z,6.83
2023-01-10T05:43:02.816Z,6.81
2023-01-10T05:43:42.961Z,6.93
2023-01-10T05:44:22.848Z,6.88
2023-01-10T05:45:03.362Z,6.65
2023-01-10T05:45:44.841Z,6.81
2023-01-10T05:46:25.922Z,6.82
2023-01-10T05:47:05.841Z,6.76
2023-01-10T05:47:45.874Z,6.91
2023-01-10T05:48:26.827Z,6.80
2023-01-10T05:49:06.899Z,6.85
2023-01-10T05:49:46.833Z,6.83
2023-01-10T05:50:27.883Z,6.88
2023-01-10T05:51:07.873Z,6.86
2023-01-10T05:51:47.879Z,6.82
2023-01-10T05:52:28.864Z,6.99
2023-01-10T05:53:08.917Z,7.01
2023-01-10T05:53:50.445Z,6.95
2023-01-10T05:54:30.926Z,6.83
2023-01-10T05:55:11.827Z,6.91
2023-01-10T05:56:01.142Z,6.79
2023-01-10T05:56:40.835Z,6.78
2023-01-10T05:57:21.954Z,6.70
2023-01-10T05:58:01.910Z,6.81
2023-01-10T05:58:44.265Z,6.87
2023-01-10T05:59:28.917Z,6.85
2023-01-10T06:00:11.256Z,6.84
2023-01-10T06:00:50.841Z,6.80
2023-01-10T06:01:30.922Z,6.79
2023-01-10T06:02:10.897Z,6.81
2023-01-10T06:02:51.938Z,6.79
2023-01-10T06:03:32.822Z,6.80
2023-01-10T06:04:12.905Z,6.76
2023-01-10T06:04:53.795Z,6.92
2023-01-10T06:05:33.901Z,7.01
2023-01-10T06:06:14.894Z,7.02
2023-01-10T06:06:55.881Z,7.08
2023-01-10T06:07:35.805Z,6.96
2023-01-10T06:08:15.870Z,6.87
2023-01-10T06:08:56.832Z,6.87
2023-01-10T06:09:36.890Z,6.83
2023-01-10T06:10:18.002Z,6.75
2023-01-10T06:10:58.879Z,6.88
2023-01-10T06:11:42.831Z,6.90
2023-01-10T06:12:22.859Z,6.79
2023-01-10T06:13:02.804Z,6.93
2023-01-10T06:13:42.858Z,6.90
2023-01-10T06:14:25.829Z,6.77
2023-01-10T06:15:21.795Z,6.90
2023-01-10T06:16:15.847Z,6.95
2023-01-10T06:17:09.794Z,7.01
2023-01-10T06:18:03.818Z,6.90
2023-01-10T06:18:57.801Z,6.97
2023-01-10T06:19:44.982Z,7.01
2023-01-10T06:20:20.028Z,7.06
2023-01-10T06:21:06.814Z,7.09
2023-01-10T06:21:40.892Z,7.12
2023-01-10T06:22:27.782Z,6.98
2023-01-10T06:23:04.680Z,7.07
2023-01-10T06:23:51.780Z,7.09
2023-01-10T06:24:25.947Z,7.01
2023-01-10T06:25:05.805Z,7.07
2023-01-10T06:25:45.968Z,7.04
2023-01-10T06:26:25.836Z,7.05
2023-01-10T06:27:06.996Z,7.08
2023-01-10T06:27:48.963Z,7.19
2023-01-10T06:28:28.832Z,7.23
2023-01-10T06:29:09.807Z,7.23
2023-01-10T06:29:49.845Z,7.16
2023-01-10T06:30:29.810Z,7.27
2023-01-10T06:31:11.023Z,7.29
2023-01-10T06:31:53.831Z,7.08
2023-01-10T06:32:34.901Z,7.17
2023-01-10T06:33:16.789Z,7.28
2023-01-10T06:33:57.869Z,7.22
2023-01-10T06:34:37.778Z,7.32
2023-01-10T06:35:18.864Z,7.14
2023-01-10T06:35:59.857Z,7.20
2023-01-10T06:36:39.872Z,7.16
2023-01-10T06:37:20.363Z,7.20
2023-01-10T06:38:00.887Z,7.09
2023-01-10T06:38:40.785Z,7.18
2023-01-10T06:39:21.822Z,7.21
2023-01-10T06:40:01.764Z,7.15
2023-01-10T06:40:41.850Z,7.25
2023-01-10T06:41:21.802Z,7.20
2023-01-10T06:42:01.875Z,7.18
2023-01-10T06:42:41.762Z,6.98
2023-01-10T06:43:21.842Z,7.15
2023-01-10T06:44:01.770Z,7.17
2023-01-10T06:44:41.900Z,7.07
2023-01-10T06:45:22.795Z,6.99
2023-01-10T06:46:02.860Z,7.13
2023-01-10T06:46:42.863Z,7.21
2023-01-10T06:47:23.883Z,7.30
2023-01-10T06:48:03.864Z,7.24
2023-01-10T06:48:45.555Z,7.27
2023-01-10T06:49:26.779Z,7.31
2023-01-10T06:50:06.896Z,7.25
2023-01-10T06:50:47.770Z,7.16
2023-01-10T06:51:27.892Z,7.14
2023-01-10T06:52:07.765Z,7.03
2023-01-10T06:52:47.864Z,6.84
2023-01-10T06:53:28.762Z,7.17
2023-01-10T06:54:08.854Z,7.20
2023-01-10T06:54:49.815Z,7.19
2023-01-10T06:55:31.862Z,7.11
2023-01-10T06:56:12.774Z,7.16
2023-01-10T06:56:54.869Z,7.29
2023-01-10T06:57:34.776Z,7.29
2023-01-10T06:58:18.417Z,7.26
2023-01-10T06:58:58.771Z,7.18
2023-01-10T06:59:39.842Z,7.30
2023-01-10T07:00:20.770Z,7.31
2023-01-10T07:01:00.968Z,7.30
2023-01-10T07:01:40.824Z,7.25
2023-01-10T07:03:01.064Z,7.35
2023-01-10T07:03:54.974Z,7.23
2023-01-10T07:04:48.743Z,7.04
2023-01-10T07:05:43.743Z,7.17
2023-01-10T07:06:37.759Z,7.07
2023-01-10T07:07:31.743Z,7.27
2023-01-10T07:08:18.782Z,7.18
2023-01-10T07:08:56.842Z,7.39
2023-01-10T07:09:43.746Z,7.41
2023-01-10T07:10:17.880Z,7.43
2023-01-10T07:11:05.763Z,7.44
2023-01-10T07:11:40.885Z,7.42
2023-01-10T07:12:27.760Z,7.45
2023-01-10T07:13:02.813Z,7.38
2023-01-10T07:13:43.767Z,7.28
2023-01-10T07:14:23.867Z,7.31
2023-01-10T07:15:03.737Z,7.32
2023-01-10T07:15:43.931Z,7.28
2023-01-10T07:16:24.763Z,7.33
2023-01-10T07:17:04.808Z,7.33
2023-01-10T07:17:44.731Z,7.23
2023-01-10T07:18:24.809Z,7.21
2023-01-10T07:19:06.757Z,7.34
2023-01-10T07:19:46.787Z,7.22
2023-01-10T07:20:27.845Z,7.30
2023-01-10T07:21:07.802Z,7.24
2023-01-10T07:21:47.719Z,7.29
2023-01-10T07:22:27.882Z,7.13
2023-01-10T07:23:07.772Z,7.30
2023-01-10T07:23:47.794Z,7.23
2023-01-10T07:24:28.748Z,7.27
2023-01-10T07:25:08.824Z,7.22
2023-01-10T07:25:48.723Z,7.36
2023-01-10T07:26:29.879Z,7.25
2023-01-10T07:27:10.762Z,7.33
2023-01-10T07:27:50.856Z,7.37
2023-01-10T07:28:31.717Z,7.43
2023-01-10T07:29:11.800Z,7.44
2023-01-10T07:29:51.750Z,7.48
2023-01-10T07:30:32.891Z,7.48
2023-01-10T07:31:13.855Z,7.43
2023-01-10T07:31:53.819Z,7.45
2023-01-10T07:32:34.726Z,7.33
2023-01-10T07:33:14.781Z,7.36
2023-01-10T07:33:55.738Z,7.46
2023-01-10T07:34:35.779Z,7.45
2023-01-10T07:35:16.782Z,7.30
2023-01-10T07:35:56.830Z,7.22
2023-01-10T07:36:39.370Z,7.23
2023-01-10T07:37:19.942Z,7.41
2023-01-10T07:38:00.710Z,7.29
2023-01-10T07:38:40.852Z,7.33
2023-01-10T07:39:20.746Z,7.32
2023-01-10T07:40:00.755Z,7.26
2023-01-10T07:40:41.739Z,7.29
2023-01-10T07:41:21.790Z,7.39
2023-01-10T07:42:02.702Z,7.38
2023-01-10T07:42:42.785Z,7.35
2023-01-10T07:43:22.771Z,7.30
2023-01-10T07:44:02.846Z,7.32
2023-01-10T07:44:43.715Z,7.25
2023-01-10T07:45:23.839Z,7.30
2023-01-10T07:46:15.757Z,7.12
2023-01-10T07:46:55.775Z,7.17
2023-01-10T07:47:35.733Z,6.95
2023-01-10T07:48:16.809Z,7.09
2023-01-10T07:48:57.730Z,7.04
2023-01-10T07:49:37.819Z,7.19
2023-01-10T07:50:18.743Z,7.17
2023-01-10T07:51:05.816Z,7.23
2023-01-10T07:51:46.715Z,7.30
2023-01-10T07:52:26.820Z,7.27
2023-01-10T07:53:09.744Z,7.26
2023-01-10T07:53:49.786Z,7.05
2023-01-10T07:54:29.725Z,6.95
2023-01-10T07:55:10.086Z,6.97
2023-01-10T07:55:52.722Z,7.00
2023-01-10T07:56:32.842Z,6.99
2023-01-10T07:57:13.719Z,7.04
2023-01-10T07:57:53.788Z,6.91
2023-01-10T07:58:35.692Z,6.90
2023-01-10T07:59:15.772Z,7.02
2023-01-10T07:59:55.714Z,7.09
2023-01-10T08:00:35.806Z,6.87
2023-01-10T08:01:16.790Z,6.96
2023-01-10T08:01:56.888Z,7.03
2023-01-10T08:02:37.803Z,7.04
2023-01-10T08:03:19.154Z,6.99
2023-01-10T08:03:59.690Z,6.93
2023-01-10T08:04:39.844Z,6.96
2023-01-10T08:05:20.701Z,6.92
2023-01-10T08:06:16.548Z,6.84
2023-01-10T08:06:57.675Z,6.89
2023-01-10T08:07:45.781Z,6.81
2023-01-10T08:08:39.682Z,6.80
2023-01-10T08:09:33.683Z,6.89
2023-01-10T08:10:27.693Z,6.86
2023-01-10T08:11:21.675Z,6.92
2023-01-10T08:12:15.714Z,6.87
2023-01-10T08:13:17.089Z,6.92
2023-01-10T08:13:52.771Z,6.69
2023-01-10T08:14:39.721Z,6.77
2023-01-10T08:15:14.768Z,6.82
2023-01-10T08:16:01.724Z,6.84
2023-01-10T08:16:35.775Z,6.81
2023-01-10T08:17:22.659Z,6.83
2023-01-10T08:18:14.692Z,6.71
2023-01-10T08:18:48.468Z,6.67
2023-01-10T08:19:35.682Z,6.67
2023-01-10T08:20:10.308Z,6.61
2023-01-10T08:20:57.675Z,6.60
2023-01-10T08:21:31.958Z,6.54
2023-01-10T08:22:19.699Z,6.64
2023-01-10T08:22:53.387Z,6.76
2023-01-10T08:23:33.698Z,6.69
2023-01-10T08:24:07.734Z,6.71
2023-01-10T08:24:41.452Z,6.65
2023-01-10T08:25:21.663Z,6.64
2023-01-10T08:25:55.797Z,6.57
2023-01-10T08:26:30.351Z,6.57
2023-01-10T08:27:11.662Z,6.69
2023-01-10T08:27:45.758Z,6.74
2023-01-10T08:28:19.534Z,6.69
2023-01-10T08:29:00.695Z,6.74
2023-01-10T08:29:35.848Z,6.57
2023-01-10T08:30:10.463Z,6.67
2023-01-10T08:30:51.815Z,6.61
2023-01-10T08:31:25.966Z,6.72
2023-01-10T08:32:00.400Z,6.70
2023-01-10T08:32:40.671Z,6.68
2023-01-10T08:33:15.726Z,6.61
2023-01-10T08:33:49.413Z,6.72
2023-01-10T08:34:30.704Z,6.63
2023-01-10T08:35:04.714Z,6.75
2023-01-10T08:35:43.067Z,6.72
2023-01-10T08:36:28.672Z,6.76
2023-01-10T08:37:02.755Z,6.64
2023-01-10T08:37:36.446Z,6.69
2023-01-10T08:38:17.660Z,6.67
2023-01-10T08:38:51.745Z,6.75
2023-01-10T08:39:30.418Z,6.72
2023-01-10T08:40:11.716Z,6.64
2023-01-10T08:40:45.724Z,6.62
2023-01-10T08:41:19.505Z,6.57
2023-01-10T08:42:01.700Z,6.56
2023-01-10T08:42:35.767Z,6.73
2023-01-10T08:43:13.398Z,6.65
2023-01-10T08:43:57.673Z,6.63
2023-01-10T08:44:31.839Z,6.65
2023-01-10T08:45:06.347Z,6.70
2023-01-10T08:45:46.667Z,6.48
2023-01-10T08:46:20.836Z,6.60
2023-01-10T08:46:56.728Z,6.61
2023-01-10T08:47:36.680Z,6.60
2023-01-10T08:48:11.754Z,6.64
2023-01-10T08:48:45.406Z,6.57
2023-01-10T08:49:25.647Z,6.60
2023-01-10T08:49:59.716Z,6.62
2023-01-10T08:50:33.662Z,6.64
2023-01-10T08:51:16.641Z,6.71
2023-01-10T08:51:50.696Z,6.64
2023-01-10T08:52:25.360Z,6.65
2023-01-10T08:53:07.663Z,6.64
2023-01-10T08:53:41.829Z,6.70
2023-01-10T08:54:15.357Z,6.72
2023-01-10T08:54:56.645Z,6.70
2023-01-10T08:55:31.242Z,6.75
2023-01-10T08:56:06.021Z,6.76
2023-01-10T08:56:46.659Z,6.74
2023-01-10T08:57:20.727Z,6.71
2023-01-10T08:57:54.540Z,6.78
2023-01-10T08:58:34.626Z,6.76
2023-01-10T08:59:08.707Z,6.78
2023-01-10T08:59:42.369Z,6.67
2023-01-10T09:00:23.649Z,6.70
2023-01-10T09:00:57.807Z,6.61
2023-01-10T09:01:31.700Z,6.67
2023-01-10T09:02:11.671Z,6.60
2023-01-10T09:02:52.782Z,6.72
2023-01-10T09:03:32.622Z,6.75
2023-01-10T09:04:12.697Z,6.80
2023-01-10T09:04:53.652Z,6.64
2023-01-10T09:05:34.738Z,6.69
2023-01-10T09:06:15.638Z,6.70
2023-01-10T09:06:55.737Z,6.74
2023-01-10T09:07:35.645Z,6.71
2023-01-10T09:08:16.781Z,6.70
2023-01-10T09:08:56.625Z,6.70
2023-01-10T09:09:37.682Z,6.55
2023-01-10T09:10:18.628Z,6.62
2023-01-10T09:10:58.985Z,6.55
2023-01-10T09:11:41.799Z,6.45
2023-01-10T09:12:47.729Z,6.58
2023-01-10T09:13:21.328Z,6.70
2023-01-10T09:14:09.615Z,6.76
2023-01-10T09:14:43.348Z,6.85
2023-01-10T09:15:30.625Z,6.65
2023-01-10T09:16:04.932Z,6.86
2023-01-10T09:16:51.615Z,6.75
2023-01-10T09:17:25.290Z,6.76
2023-01-10T09:18:18.297Z,6.74
2023-01-10T09:18:54.424Z,6.78
2023-01-10T09:19:41.665Z,6.82
2023-01-10T09:20:16.013Z,6.70
2023-01-10T09:21:05.803Z,6.63
2023-01-10T09:21:39.296Z,6.63
2023-01-10T09:22:27.629Z,6.66
2023-01-10T09:23:10.899Z,6.58
2023-01-10T09:23:50.641Z,6.61
2023-01-10T09:24:24.689Z,6.74
2023-01-10T09:24:58.460Z,6.64
2023-01-10T09:25:39.653Z,6.80
2023-01-10T09:26:13.726Z,6.86
2023-01-10T09:26:47.424Z,6.85
2023-01-10T09:27:27.723Z,6.84
2023-01-10T09:28:05.921Z,6.84
2023-01-10T09:28:39.369Z,6.69
2023-01-10T09:29:19.624Z,6.72
2023-01-10T09:29:53.663Z,6.77
2023-01-10T09:30:30.363Z,6.79
2023-01-10T09:31:11.645Z,6.85
2023-01-10T09:31:45.696Z,6.80
2023-01-10T09:32:19.864Z,6.88
2023-01-10T09:33:01.631Z,6.85
2023-01-10T09:33:46.144Z,6.85
2023-01-10T09:34:28.637Z,6.70
2023-01-10T09:35:08.699Z,6.82
2023-01-10T09:35:49.612Z,6.78
2023-01-10T09:36:29.674Z,6.75
2023-01-10T09:37:09.598Z,6.77
2023-01-10T09:37:49.719Z,6.73
2023-01-10T09:38:30.597Z,6.83
2023-01-10T09:39:10.692Z,6.69
2023-01-10T09:39:50.661Z,6.66
2023-01-10T09:40:55.748Z,6.74
2023-01-10T09:41:54.574Z,6.67
2023-01-10T09:42:42.649Z,6.74
2023-01-10T09:44:01.244Z,6.85
2023-01-10T09:45:32.595Z,6.83
2023-01-10T09:46:42.823Z,6.89
2023-01-10T09:47:48.614Z,6.87
2023-01-10T09:48:42.829Z,6.89
2023-01-10T09:49:50.633Z,6.85
2023-01-10T09:50:58.589Z,6.96
2023-01-10T09:51:54.677Z,6.92